Alexandria, Kentucky
Current Conditions -  °F | °C
As of 10:11 PM on Thursday 27 Nov 2014 (Local Time) from KLUK Reporting Station
Overcast Overcast  
Wind Chill: -7°   Ceiling: 2900
Heat Index: -2°   Visibility: 10mi
Dew Point: -7°   Wind: 13mph
Humidity: 67%   Direction: 270°W
Pressure: 30.42"   Gusts: NA
Location:  38.96°N, 84.4°W
Report Text: KLUK 280311Z 27011KT 10SM BKN029 OVC036 M02/M07 A3042 RMK AO2 T10171072
Loading
Personal Weather Stations






























Interactive Weather Map New forecast layout! Learn more

10-Day Weather Forecast

Advertisements
Track Severe Weather on mobile